createdAt,value
2019-03-01T00:02:25.017Z,8.27
2019-03-01T00:05:22.041Z,10.10
2019-03-01T00:08:10.018Z,9.20
2019-03-01T00:11:02.905Z,8.87
2019-03-01T00:13:46.453Z,8.50
2019-03-01T00:16:35.816Z,9.00
2019-03-01T00:19:19.009Z,8.93
2019-03-01T00:21:53.270Z,7.93
2019-03-01T00:24:39.667Z,9.30
2019-03-01T00:27:27.885Z,8.47
2019-03-01T00:30:21.977Z,7.53
2019-03-01T00:32:56.207Z,7.80
2019-03-01T00:35:42.720Z,8.23
2019-03-01T00:38:32.059Z,8.47
2019-03-01T00:41:06.215Z,9.10
2019-03-01T00:43:55.790Z,7.40
2019-03-01T00:46:24.080Z,8.40
2019-03-01T00:48:52.342Z,8.37
2019-03-01T00:51:20.611Z,8.20
2019-03-01T00:53:48.869Z,7.90
2019-03-01T00:56:17.149Z,8.83
2019-03-01T00:58:45.405Z,7.67
2019-03-01T01:01:13.669Z,8.23
2019-03-01T01:03:41.956Z,9.07
2019-03-01T01:06:10.215Z,8.17
2019-03-01T01:08:38.504Z,8.60
2019-03-01T01:11:06.752Z,8.67
2019-03-01T01:13:35.009Z,8.67
2019-03-01T01:16:03.266Z,7.80
2019-03-01T01:18:31.523Z,8.70
2019-03-01T01:20:59.783Z,7.67
2019-03-01T01:23:28.033Z,7.20
2019-03-01T01:25:56.296Z,7.93
2019-03-01T01:28:24.580Z,8.03
2019-03-01T01:30:52.835Z,7.63
2019-03-01T01:33:21.099Z,7.77
2019-03-01T01:35:49.350Z,6.97
2019-03-01T01:38:17.602Z,6.93
2019-03-01T01:40:45.864Z,6.83
2019-03-01T01:43:14.118Z,6.50
2019-03-01T01:45:42.376Z,6.80
2019-03-01T01:48:10.636Z,5.80
2019-03-01T01:50:38.883Z,6.23
2019-03-01T01:53:07.153Z,6.10
2019-03-01T01:55:35.413Z,6.30
2019-03-01T01:58:03.684Z,6.10
2019-03-01T02:00:31.943Z,6.17
2019-03-01T02:03:00.192Z,6.03
2019-03-01T02:05:28.456Z,5.60
2019-03-01T02:07:56.722Z,5.13
2019-03-01T02:10:24.968Z,4.93
2019-03-01T02:12:53.235Z,5.80
2019-03-01T02:15:21.487Z,5.00
2019-03-01T02:17:49.766Z,5.50
2019-03-01T02:20:18.032Z,5.70
2019-03-01T02:22:46.286Z,5.13
2019-03-01T02:25:14.575Z,5.27
2019-03-01T02:27:42.834Z,5.67
2019-03-01T02:30:14.057Z,5.30
2019-03-01T02:32:44.514Z,5.33
2019-03-01T02:35:14.959Z,5.43
2019-03-01T02:37:43.271Z,6.00
2019-03-01T02:40:13.361Z,6.00
2019-03-01T02:42:41.615Z,5.37
2019-03-01T02:45:17.770Z,5.50
2019-03-01T02:47:46.060Z,6.10
2019-03-01T02:50:16.589Z,6.57
2019-03-01T02:52:44.922Z,5.70
2019-03-01T02:55:18.498Z,6.13
2019-03-01T02:57:46.757Z,6.33
2019-03-01T03:00:19.269Z,5.37
2019-03-01T03:02:47.520Z,5.73
2019-03-01T03:05:15.844Z,6.30
2019-03-01T03:07:45.746Z,5.77
2019-03-01T03:10:14.097Z,6.80
2019-03-01T03:12:42.364Z,6.30
2019-03-01T03:15:13.025Z,6.67
2019-03-01T03:17:41.292Z,6.07
2019-03-01T03:20:10.111Z,6.60
2019-03-01T03:22:38.401Z,6.50
2019-03-01T03:25:08.694Z,6.50
2019-03-01T03:27:36.949Z,6.50
2019-03-01T03:30:08.506Z,6.13
2019-03-01T03:32:36.759Z,5.57
2019-03-01T03:35:06.092Z,5.87
2019-03-01T03:37:34.357Z,7.30
2019-03-01T03:40:02.786Z,6.43
2019-03-01T03:42:31.065Z,6.63
2019-03-01T03:44:59.314Z,6.53
2019-03-01T03:47:27.591Z,6.70
2019-03-01T03:49:55.842Z,7.30
2019-03-01T03:52:24.181Z,6.90
2019-03-01T03:54:52.464Z,6.40
2019-03-01T03:57:20.799Z,6.40
2019-03-01T03:59:49.053Z,6.23
2019-03-01T04:02:17.315Z,6.30
2019-03-01T04:04:45.588Z,6.40
2019-03-01T04:07:13.854Z,6.77
2019-03-01T04:09:42.112Z,5.80
2019-03-01T04:12:10.391Z,6.13
2019-03-01T04:14:38.639Z,5.73
2019-03-01T04:17:06.892Z,6.07
2019-03-01T04:19:35.150Z,6.33
2019-03-01T04:22:03.410Z,6.33
2019-03-01T04:24:31.668Z,7.00
2019-03-01T04:26:59.930Z,7.47
2019-03-01T04:29:28.181Z,7.47
2019-03-01T04:31:56.447Z,7.67
2019-03-01T04:34:24.705Z,8.40
2019-03-01T04:36:52.967Z,8.03
2019-03-01T04:39:21.223Z,8.53
2019-03-01T04:41:49.504Z,9.20
2019-03-01T04:44:17.831Z,8.87
2019-03-01T04:46:46.096Z,9.47
2019-03-01T04:49:14.431Z,9.67
2019-03-01T04:51:42.687Z,8.53
2019-03-01T04:54:10.948Z,9.17
2019-03-01T04:56:39.270Z,8.40
2019-03-01T04:59:07.548Z,9.93
2019-03-01T05:01:35.876Z,9.13
2019-03-01T05:04:04.138Z,9.37
2019-03-01T05:06:32.425Z,9.07
2019-03-01T05:09:00.672Z,9.80
2019-03-01T05:11:28.934Z,9.00
2019-03-01T05:13:57.188Z,9.30
2019-03-01T05:16:25.450Z,10.10
2019-03-01T05:18:53.732Z,8.80
2019-03-01T05:21:21.988Z,9.00
2019-03-01T05:23:50.262Z,8.90
2019-03-01T05:26:18.522Z,8.77
2019-03-01T05:28:46.798Z,8.73
2019-03-01T05:31:15.055Z,9.00
2019-03-01T05:33:43.337Z,10.17
2019-03-01T05:36:11.598Z,10.27
2019-03-01T05:38:39.875Z,10.67
2019-03-01T05:41:08.141Z,9.27
2019-03-01T05:43:36.417Z,9.87
2019-03-01T05:46:04.675Z,8.40
2019-03-01T05:48:32.936Z,9.27
2019-03-01T05:51:01.199Z,9.40
2019-03-01T05:53:29.454Z,9.23
2019-03-01T05:55:57.711Z,9.30
2019-03-01T05:58:36.731Z,8.40
2019-03-01T06:01:14.271Z,8.10
2019-03-01T06:03:54.807Z,9.37
2019-03-01T06:06:38.563Z,8.60
2019-03-01T06:09:19.146Z,8.47
2019-03-01T06:11:53.370Z,8.27
2019-03-01T06:14:36.738Z,8.57
2019-03-01T06:17:35.332Z,8.63
2019-03-01T06:20:12.474Z,8.30
2019-03-01T06:22:46.712Z,7.63
2019-03-01T06:25:18.230Z,7.33
2019-03-01T06:28:04.851Z,7.37
2019-03-01T06:30:57.393Z,6.57
2019-03-01T06:33:40.817Z,7.37
2019-03-01T06:36:15.275Z,6.87
2019-03-01T06:38:54.127Z,7.03
2019-03-01T06:41:36.005Z,6.20
2019-03-01T06:44:24.219Z,5.97
2019-03-01T06:47:27.313Z,6.13
2019-03-01T06:50:13.339Z,5.73
2019-03-01T06:52:41.597Z,5.00
2019-03-01T06:55:13.119Z,4.90
2019-03-01T06:57:41.372Z,4.83
2019-03-01T07:00:11.454Z,4.40
2019-03-01T07:02:41.392Z,4.13
2019-03-01T07:05:10.205Z,4.27
2019-03-01T07:07:38.466Z,4.17
2019-03-01T07:10:08.580Z,3.90
2019-03-01T07:12:36.819Z,4.00
2019-03-01T07:15:08.718Z,4.07
2019-03-01T07:17:37.131Z,3.60
2019-03-01T07:20:08.673Z,4.43
2019-03-01T07:22:37.086Z,4.53
2019-03-01T07:25:06.686Z,4.20
2019-03-01T07:27:34.939Z,4.50
2019-03-01T07:30:03.860Z,4.03
2019-03-01T07:32:32.124Z,4.13
2019-03-01T07:35:00.402Z,4.27
2019-03-01T07:37:28.653Z,4.50
2019-03-01T07:39:56.944Z,5.27
2019-03-01T07:42:25.189Z,4.57
2019-03-01T07:44:53.446Z,5.10
2019-03-01T07:47:21.705Z,5.33
2019-03-01T07:49:49.986Z,5.33
2019-03-01T07:52:18.237Z,5.17
2019-03-01T07:54:49.425Z,5.43
2019-03-01T07:57:16.475Z,5.93
2019-03-01T07:59:44.762Z,6.00
2019-03-01T08:02:13.013Z,6.00
2019-03-01T08:04:41.262Z,6.17
2019-03-01T08:07:09.520Z,8.37
2019-03-01T08:09:37.787Z,6.67
2019-03-01T08:12:07.464Z,6.33
2019-03-01T08:14:36.013Z,6.03
2019-03-01T08:17:04.299Z,6.37
2019-03-01T08:19:32.554Z,7.43
2019-03-01T08:22:00.891Z,8.27
2019-03-01T08:24:29.179Z,8.60
2019-03-01T08:26:57.437Z,8.40
2019-03-01T08:29:25.699Z,7.40
2019-03-01T08:31:55.763Z,6.33
2019-03-01T08:34:23.929Z,6.73
2019-03-01T08:36:52.205Z,7.50
2019-03-01T08:39:20.465Z,7.23
2019-03-01T08:41:48.741Z,7.23
2019-03-01T08:44:19.313Z,7.63
2019-03-01T08:46:46.977Z,7.77
2019-03-01T08:49:15.264Z,9.43
2019-03-01T08:51:43.525Z,9.20
2019-03-01T08:54:11.786Z,10.20
2019-03-01T08:56:40.048Z,11.63
2019-03-01T08:59:08.316Z,11.90
2019-03-01T09:01:36.604Z,10.20
2019-03-01T09:04:14.202Z,11.50
2019-03-01T09:06:41.729Z,10.33
2019-03-01T09:09:10.193Z,6.67
2019-03-01T09:11:41.806Z,6.17
2019-03-01T09:14:08.426Z,5.27
2019-03-01T09:16:36.694Z,5.70
2019-03-01T09:19:04.956Z,4.73
2019-03-01T09:21:33.208Z,3.87
2019-03-01T09:24:01.475Z,3.30
2019-03-01T09:26:29.725Z,2.87
2019-03-01T09:28:57.975Z,2.90
2019-03-01T09:31:26.236Z,3.10
2019-03-01T09:33:56.528Z,2.50
2019-03-01T09:36:26.112Z,2.17
2019-03-01T09:38:54.379Z,2.30
2019-03-01T09:41:22.633Z,2.60
2019-03-01T09:43:50.896Z,2.40
2019-03-01T09:46:20.806Z,2.57
2019-03-01T09:48:49.682Z,2.90
2019-03-01T09:51:18.771Z,2.20
2019-03-01T09:53:47.017Z,2.23
2019-03-01T09:56:15.286Z,2.57
2019-03-01T09:58:43.543Z,2.03
2019-03-01T10:01:14.624Z,2.10
2019-03-01T10:03:42.884Z,2.10
2019-03-01T10:06:11.157Z,2.27
2019-03-01T10:08:39.408Z,1.90
2019-03-01T10:11:07.668Z,1.83
2019-03-01T10:16:04.200Z,2.00
2019-03-01T10:18:32.447Z,2.20
2019-03-01T10:21:00.701Z,2.10
2019-03-01T10:23:28.963Z,2.20
2019-03-01T10:25:57.228Z,2.27
2019-03-01T10:28:25.472Z,2.40
2019-03-01T10:30:53.741Z,1.90
2019-03-01T10:33:22.003Z,2.30
2019-03-01T10:35:50.268Z,2.10
2019-03-01T10:38:18.534Z,2.30
2019-03-01T10:40:46.786Z,2.17
2019-03-01T10:43:15.055Z,2.00
2019-03-01T10:45:43.328Z,2.20
2019-03-01T10:48:11.580Z,2.27
2019-03-01T10:50:39.841Z,2.07
2019-03-01T10:53:08.106Z,2.00
2019-03-01T10:55:36.358Z,3.93
2019-03-01T10:58:04.622Z,2.50
2019-03-01T11:00:33.113Z,2.20
2019-03-01T11:03:01.379Z,1.80
2019-03-01T11:05:29.706Z,1.80
2019-03-01T11:07:57.956Z,1.87
2019-03-01T11:10:42.532Z,2.10
2019-03-01T11:13:16.480Z,1.70
2019-03-01T11:15:44.748Z,1.80
2019-03-01T11:18:13.037Z,1.80
2019-03-01T11:20:41.292Z,2.20
2019-03-01T11:23:09.554Z,1.87
2019-03-01T11:25:37.814Z,1.80
2019-03-01T11:28:06.071Z,1.60
2019-03-01T11:30:37.868Z,2.10
2019-03-01T11:33:06.128Z,3.20
2019-03-01T11:35:34.383Z,2.40
2019-03-01T11:38:02.811Z,2.10
2019-03-01T11:40:35.420Z,1.70
2019-03-01T11:43:03.741Z,2.73
2019-03-01T11:45:32.009Z,5.33
2019-03-01T11:48:00.269Z,2.87
2019-03-01T11:50:28.549Z,2.47
2019-03-01T11:52:56.878Z,2.30
2019-03-01T11:55:25.135Z,2.17
2019-03-01T11:57:53.391Z,3.67
2019-03-01T12:00:25.865Z,2.37
2019-03-01T12:02:54.149Z,2.17
2019-03-01T12:05:22.405Z,1.80
2019-03-01T12:07:50.667Z,1.90
2019-03-01T12:10:27.472Z,1.77
2019-03-01T12:12:55.739Z,1.87
2019-03-01T12:15:23.989Z,2.10
2019-03-01T12:17:52.244Z,1.80
2019-03-01T12:20:22.445Z,2.00
2019-03-01T12:22:50.704Z,3.03
2019-03-01T12:25:18.980Z,2.83
2019-03-01T12:27:47.242Z,1.93
2019-03-01T12:30:17.334Z,2.80
2019-03-01T12:32:45.594Z,3.77
2019-03-01T12:35:13.851Z,3.03
2019-03-01T12:37:42.106Z,3.03
2019-03-01T12:40:15.781Z,3.03
2019-03-01T12:42:44.084Z,2.90
2019-03-01T12:45:14.480Z,2.33
2019-03-01T12:47:42.886Z,2.17
2019-03-01T12:50:13.546Z,1.90
2019-03-01T12:52:41.898Z,2.10
2019-03-01T12:55:12.898Z,2.00
2019-03-01T12:57:41.159Z,1.87
2019-03-01T13:00:14.989Z,2.20
2019-03-01T13:02:43.251Z,2.33
2019-03-01T13:05:13.041Z,1.90
2019-03-01T13:07:41.288Z,1.93
2019-03-01T13:10:15.686Z,2.00
2019-03-01T13:12:44.007Z,1.93
2019-03-01T13:15:13.795Z,1.80
2019-03-01T13:17:42.780Z,1.80
2019-03-01T13:20:13.385Z,2.10
2019-03-01T13:22:41.650Z,2.20
2019-03-01T13:25:11.039Z,2.97
2019-03-01T13:27:39.317Z,2.40
2019-03-01T13:30:10.835Z,2.40
2019-03-01T13:32:39.086Z,2.40
2019-03-01T13:35:18.662Z,2.43
2019-03-01T13:37:46.926Z,2.10
2019-03-01T13:40:17.189Z,2.20
2019-03-01T13:42:47.170Z,1.93
2019-03-01T13:45:17.955Z,2.07
2019-03-01T13:47:46.212Z,2.77
2019-03-01T13:50:21.341Z,3.07
2019-03-01T13:52:50.275Z,2.30
2019-03-01T13:55:21.939Z,2.23
2019-03-01T13:57:49.954Z,2.00
2019-03-01T14:00:19.617Z,2.70
2019-03-01T14:02:48.023Z,3.30
2019-03-01T14:05:17.369Z,3.50
2019-03-01T14:07:45.856Z,4.70
2019-03-01T14:10:16.517Z,2.63
2019-03-01T14:12:44.793Z,3.03
2019-03-01T14:15:15.189Z,2.40
2019-03-01T14:17:43.471Z,3.47
2019-03-01T14:20:20.394Z,3.47
2019-03-01T14:22:47.848Z,2.70
2019-03-01T14:25:17.212Z,3.10
2019-03-01T14:27:45.466Z,2.30
2019-03-01T14:30:25.335Z,2.30
2019-03-01T14:32:57.019Z,2.80
2019-03-01T14:35:25.817Z,2.60
2019-03-01T14:37:55.235Z,2.53
2019-03-01T14:40:22.593Z,2.40
2019-03-01T14:42:51.875Z,2.20
2019-03-01T14:45:27.510Z,2.73
2019-03-01T14:47:56.109Z,2.63
2019-03-01T14:50:30.138Z,2.20
2019-03-01T14:52:59.027Z,2.50
2019-03-01T14:55:39.906Z,2.60
2019-03-01T14:58:23.528Z,2.50
2019-03-01T15:01:04.262Z,2.30
2019-03-01T15:03:36.878Z,2.80
2019-03-01T15:06:05.774Z,3.10
2019-03-01T15:08:34.273Z,2.73
2019-03-01T15:11:13.606Z,2.60
2019-03-01T15:13:42.102Z,2.57
2019-03-01T15:16:10.369Z,2.90
2019-03-01T15:18:40.187Z,3.40
2019-03-01T15:21:09.180Z,3.40
2019-03-01T15:23:37.510Z,3.40
2019-03-01T15:26:05.769Z,3.40
2019-03-01T15:28:37.283Z,3.60
2019-03-01T15:31:05.557Z,3.80
2019-03-01T15:33:33.822Z,3.50
2019-03-01T15:36:02.097Z,3.47
2019-03-01T15:38:30.380Z,3.40
2019-03-01T15:40:58.635Z,4.23
2019-03-01T15:43:29.854Z,3.90
2019-03-01T15:45:57.810Z,5.30
2019-03-01T15:48:26.072Z,4.20
2019-03-01T15:50:54.333Z,4.17
2019-03-01T15:53:25.057Z,4.30
2019-03-01T15:55:52.597Z,4.10
2019-03-01T15:58:20.855Z,4.70
2019-03-01T16:00:49.106Z,4.93
2019-03-01T16:03:17.373Z,4.33
2019-03-01T16:05:45.628Z,4.53
2019-03-01T16:08:13.880Z,5.17
2019-03-01T16:10:42.136Z,5.77
2019-03-01T16:13:12.228Z,6.13
2019-03-01T16:15:40.399Z,7.73
2019-03-01T16:18:08.676Z,6.47
2019-03-01T16:20:37.401Z,5.33
2019-03-01T16:23:05.659Z,5.10
2019-03-01T16:25:33.916Z,4.87
2019-03-01T16:28:02.168Z,5.20
2019-03-01T16:30:30.446Z,5.90
2019-03-01T16:32:58.689Z,7.00
2019-03-01T16:35:26.944Z,6.80
2019-03-01T16:37:57.776Z,5.40
2019-03-01T16:40:26.893Z,5.80
2019-03-01T16:42:55.157Z,6.10
2019-03-01T16:45:23.398Z,5.70
2019-03-01T16:47:51.674Z,6.10
2019-03-01T16:50:21.562Z,6.77
2019-03-01T16:52:49.818Z,7.07
2019-03-01T16:55:27.725Z,7.07
2019-03-01T16:58:06.205Z,6.63
2019-03-01T17:00:25.380Z,6.77
2019-03-01T17:02:59.797Z,7.53
2019-03-01T17:05:28.066Z,7.00
2019-03-01T17:07:56.316Z,7.87
2019-03-01T17:10:26.387Z,7.40
2019-03-01T17:12:54.722Z,8.07
2019-03-01T17:15:24.229Z,7.70
2019-03-01T17:17:52.550Z,7.80
2019-03-01T17:20:20.800Z,7.90
2019-03-01T17:22:49.059Z,8.10
2019-03-01T17:25:19.438Z,12.00
2019-03-01T17:27:49.563Z,10.00
2019-03-01T17:30:20.459Z,11.07
2019-03-01T17:32:48.709Z,9.10
2019-03-01T17:35:16.982Z,11.93
2019-03-01T17:37:45.241Z,13.13
2019-03-01T17:40:17.674Z,10.13
2019-03-01T17:42:45.950Z,8.60
2019-03-01T17:45:20.979Z,8.60
2019-03-01T17:47:48.759Z,9.50
2019-03-01T17:50:17.047Z,9.50
2019-03-01T17:52:45.298Z,9.63
2019-03-01T17:55:21.632Z,9.37
2019-03-01T17:57:50.312Z,9.80
2019-03-01T18:00:42.219Z,8.60
2019-03-01T18:03:10.548Z,9.90
2019-03-01T18:05:40.538Z,9.70
2019-03-01T18:08:08.816Z,10.40
2019-03-01T18:10:37.075Z,10.13
2019-03-01T18:13:05.338Z,10.57
2019-03-01T18:15:33.602Z,12.73
2019-03-01T18:18:01.872Z,10.23
2019-03-01T18:20:30.132Z,10.13
2019-03-01T18:22:59.359Z,9.00
2019-03-01T18:25:28.373Z,9.60
2019-03-01T18:27:56.630Z,9.00
2019-03-01T18:30:34.695Z,9.10
2019-03-01T18:33:02.956Z,9.67
2019-03-01T18:35:31.206Z,9.93
2019-03-01T18:37:59.461Z,9.67
2019-03-01T18:40:27.719Z,9.63
2019-03-01T18:42:55.979Z,9.43
2019-03-01T18:45:25.481Z,10.47
2019-03-01T18:47:53.766Z,10.40
2019-03-01T18:50:32.290Z,10.00
2019-03-01T18:53:03.803Z,10.93
2019-03-01T18:55:31.896Z,10.50
2019-03-01T18:58:00.150Z,11.40
2019-03-01T19:00:32.448Z,11.30
2019-03-01T19:03:04.436Z,10.63
2019-03-01T19:05:31.960Z,11.90
2019-03-01T19:08:00.905Z,12.07
2019-03-01T19:10:30.204Z,12.57
2019-03-01T19:12:58.486Z,12.43
2019-03-01T19:15:26.747Z,15.70
2019-03-01T19:17:55.104Z,14.87
2019-03-01T19:20:28.743Z,12.87
2019-03-01T19:22:57.000Z,11.90
2019-03-01T19:25:26.588Z,12.80
2019-03-01T19:27:54.926Z,13.20
2019-03-01T19:30:24.524Z,13.73
2019-03-01T19:32:52.788Z,13.27
2019-03-01T19:35:21.073Z,13.73
2019-03-01T19:37:50.686Z,14.10
2019-03-01T19:40:20.934Z,14.83
2019-03-01T19:42:49.190Z,14.27
2019-03-01T19:45:18.513Z,15.23
2019-03-01T19:47:46.775Z,16.47
2019-03-01T19:50:25.017Z,15.60
2019-03-01T19:52:53.791Z,16.43
2019-03-01T19:55:22.043Z,16.87
2019-03-01T19:57:50.305Z,16.60
2019-03-01T20:00:21.104Z,17.17
2019-03-01T20:02:49.360Z,16.67
2019-03-01T20:05:27.762Z,16.77
2019-03-01T20:07:56.690Z,17.57
2019-03-01T20:10:24.949Z,18.07
2019-03-01T20:12:53.217Z,17.90
2019-03-01T20:15:24.194Z,19.63
2019-03-01T20:17:53.187Z,18.57
2019-03-01T20:20:26.340Z,19.67
2019-03-01T20:22:55.299Z,19.97
2019-03-01T20:25:23.915Z,19.93
2019-03-01T20:27:52.178Z,20.23
2019-03-01T20:30:30.191Z,20.43
2019-03-01T20:32:58.431Z,20.53
2019-03-01T20:35:26.700Z,20.50
2019-03-01T20:37:54.966Z,22.23
2019-03-01T20:40:26.599Z,22.27
2019-03-01T20:42:55.856Z,19.57
2019-03-01T20:45:31.415Z,18.90
2019-03-01T20:47:59.789Z,19.10
2019-03-01T20:50:28.042Z,20.50
2019-03-01T20:52:56.332Z,20.23
2019-03-01T20:55:24.609Z,21.33
2019-03-01T20:57:52.866Z,19.57
2019-03-01T21:00:26.161Z,19.50
2019-03-01T21:02:54.053Z,21.93
2019-03-01T21:05:25.102Z,21.23
2019-03-01T21:07:53.849Z,21.40
2019-03-01T21:10:23.555Z,21.33
2019-03-01T21:12:51.814Z,19.73
2019-03-01T21:15:22.998Z,20.77
2019-03-01T21:17:53.088Z,20.57
2019-03-01T21:20:21.821Z,21.50
2019-03-01T21:22:50.077Z,20.37
2019-03-01T21:25:23.332Z,22.03
2019-03-01T21:27:51.587Z,21.93
2019-03-01T21:30:33.514Z,21.37
2019-03-01T21:33:01.774Z,22.27
2019-03-01T21:35:30.034Z,22.30
2019-03-01T21:37:58.294Z,21.83
2019-03-01T21:40:26.572Z,21.47
2019-03-01T21:42:57.222Z,21.60
2019-03-01T21:45:25.170Z,22.63
2019-03-01T21:47:53.457Z,21.93
2019-03-01T21:50:21.720Z,21.90
2019-03-01T21:52:49.988Z,23.27
2019-03-01T21:55:25.046Z,23.47
2019-03-01T21:57:52.943Z,24.73
2019-03-01T22:00:29.769Z,24.53
2019-03-01T22:02:56.090Z,26.13
2019-03-01T22:05:24.357Z,25.10
2019-03-01T22:07:52.792Z,25.33
2019-03-01T22:10:21.050Z,25.57
2019-03-01T22:12:49.314Z,25.63
2019-03-01T22:15:28.418Z,26.57
2019-03-01T22:17:56.737Z,24.57
2019-03-01T22:20:25.028Z,27.30
2019-03-01T22:22:53.284Z,28.17
2019-03-01T22:25:21.558Z,27.90
2019-03-01T22:27:49.816Z,28.83
2019-03-01T22:30:32.256Z,28.00
2019-03-01T22:33:00.525Z,25.77
2019-03-01T22:35:28.849Z,24.47
2019-03-01T22:38:01.164Z,25.47
2019-03-01T22:40:27.897Z,24.73
2019-03-01T22:42:57.262Z,25.70
2019-03-01T22:45:25.532Z,25.73
2019-03-01T22:47:53.800Z,26.70
2019-03-01T22:50:22.082Z,25.23
2019-03-01T22:52:50.356Z,26.50
2019-03-01T22:55:19.249Z,25.67
2019-03-01T22:57:47.504Z,26.33
2019-03-01T23:00:29.874Z,25.30
2019-03-01T23:02:58.267Z,28.10
2019-03-01T23:05:26.533Z,32.53
2019-03-01T23:07:56.789Z,33.80
2019-03-01T23:10:24.803Z,34.43
2019-03-01T23:12:53.096Z,35.53
2019-03-01T23:15:21.350Z,34.97
2019-03-01T23:17:49.612Z,30.83
2019-03-01T23:20:17.885Z,29.30
2019-03-01T23:22:46.867Z,31.47
2019-03-01T23:25:15.186Z,30.47
2019-03-01T23:27:43.454Z,29.77
2019-03-01T23:30:11.737Z,29.57
2019-03-01T23:32:39.997Z,30.77
2019-03-01T23:35:08.270Z,29.70
2019-03-01T23:37:38.882Z,31.13
2019-03-01T23:40:06.948Z,30.47
2019-03-01T23:42:35.200Z,29.60
2019-03-01T23:45:03.735Z,30.93
2019-03-01T23:47:34.731Z,29.27
2019-03-01T23:50:01.987Z,32.10
2019-03-01T23:52:30.281Z,32.53
2019-03-01T23:54:58.528Z,32.70
2019-03-01T23:57:26.783Z,31.10
2019-03-01T23:59:55.053Z,31.20
